createdAt,value
2023-01-22T00:00:31.300Z,7.20
2023-01-22T00:03:19.462Z,6.45
2023-01-22T00:06:08.245Z,6.70
2023-01-22T00:08:56.416Z,6.28
2023-01-22T00:11:44.573Z,6.43
2023-01-22T00:14:32.787Z,6.03
2023-01-22T00:17:22.360Z,6.28
2023-01-22T00:20:12.389Z,5.72
2023-01-22T00:23:00.627Z,6.80
2023-01-22T00:25:48.783Z,6.68
2023-01-22T00:28:37.624Z,5.65
2023-01-22T00:31:25.997Z,6.22
2023-01-22T00:34:15.650Z,6.55
2023-01-22T00:37:03.837Z,6.55
2023-01-22T00:39:52.012Z,6.07
2023-01-22T00:42:40.413Z,6.55
2023-01-22T00:45:28.783Z,5.97
2023-01-22T00:48:16.948Z,6.18
2023-01-22T00:51:08.780Z,5.40
2023-01-22T00:53:57.305Z,5.25
2023-01-22T00:56:45.486Z,5.55
2023-01-22T00:59:33.634Z,5.10
2023-01-22T01:02:21.879Z,5.28
2023-01-22T01:05:10.288Z,5.47
2023-01-22T01:07:59.836Z,5.18
2023-01-22T01:10:48.090Z,5.15
2023-01-22T01:13:39.885Z,5.13
2023-01-22T01:16:30.257Z,5.18
2023-01-22T01:19:20.484Z,4.78
2023-01-22T01:22:08.849Z,4.60
2023-01-22T01:24:58.355Z,5.00
2023-01-22T01:27:46.493Z,4.68
2023-01-22T01:30:34.714Z,5.63
2023-01-22T01:33:23.297Z,4.78
2023-01-22T01:36:13.833Z,4.80
2023-01-22T01:39:04.345Z,5.35
2023-01-22T01:41:53.995Z,4.28
2023-01-22T01:44:44.117Z,4.75
2023-01-22T01:47:35.531Z,4.82
2023-01-22T01:50:26.112Z,5.00
2023-01-22T01:53:14.830Z,4.10
2023-01-22T01:56:06.451Z,4.65
2023-01-22T01:58:59.617Z,4.63
2023-01-22T02:01:51.132Z,4.40
2023-01-22T02:04:39.326Z,3.78
2023-01-22T02:07:27.511Z,4.22
2023-01-22T02:10:16.052Z,4.07
2023-01-22T02:13:09.553Z,4.05
2023-01-22T02:15:59.103Z,3.90
2023-01-22T02:18:47.864Z,4.20
2023-01-22T02:21:39.418Z,4.20
2023-01-22T02:24:31.386Z,3.65
2023-01-22T02:27:19.667Z,4.10
2023-01-22T02:30:09.617Z,4.13
2023-01-22T02:32:57.787Z,3.65
2023-01-22T02:35:45.946Z,4.28
2023-01-22T02:38:35.399Z,3.78
2023-01-22T02:41:23.907Z,4.07
2023-01-22T02:44:12.081Z,3.42
2023-01-22T02:47:00.617Z,3.92
2023-01-22T02:49:48.857Z,4.03
2023-01-22T02:52:37.053Z,4.05
2023-01-22T02:55:26.549Z,4.05
2023-01-22T02:58:14.715Z,3.70
2023-01-22T03:01:18.848Z,4.10
2023-01-22T03:04:10.941Z,3.97
2023-01-22T03:06:59.265Z,4.18
2023-01-22T03:09:48.442Z,4.10
2023-01-22T03:12:55.572Z,4.40
2023-01-22T03:16:01.361Z,4.10
2023-01-22T03:19:06.885Z,4.32
2023-01-22T03:21:55.046Z,4.32
2023-01-22T03:24:43.181Z,4.40
2023-01-22T03:27:32.442Z,4.20
2023-01-22T03:30:21.960Z,3.45
2023-01-22T03:33:10.118Z,3.65
2023-01-22T03:36:02.077Z,3.38
2023-01-22T03:38:50.268Z,3.40
2023-01-22T03:41:38.720Z,3.47
2023-01-22T03:44:26.914Z,3.60
2023-01-22T03:47:16.406Z,3.28
2023-01-22T03:50:05.176Z,3.45
2023-01-22T03:52:53.360Z,3.20
2023-01-22T03:55:41.501Z,3.45
2023-01-22T03:58:30.852Z,3.72
2023-01-22T04:01:21.270Z,3.20
2023-01-22T04:04:10.897Z,3.30
2023-01-22T04:06:59.061Z,3.53
2023-01-22T04:09:47.220Z,3.80
2023-01-22T04:12:35.715Z,3.38
2023-01-22T04:15:23.908Z,3.53
2023-01-22T04:18:12.522Z,4.07
2023-01-22T04:21:02.115Z,3.42
2023-01-22T04:23:50.279Z,3.72
2023-01-22T04:26:38.439Z,2.90
2023-01-22T04:29:26.618Z,3.20
2023-01-22T04:32:14.912Z,3.60
2023-01-22T04:35:03.945Z,3.35
2023-01-22T04:37:53.420Z,3.10
2023-01-22T04:40:41.592Z,3.22
2023-01-22T04:43:29.760Z,3.25
2023-01-22T04:46:17.931Z,3.47
2023-01-22T04:49:06.129Z,3.08
2023-01-22T04:51:54.724Z,3.17
2023-01-22T04:54:44.861Z,3.25
2023-01-22T04:57:33.009Z,3.22
2023-01-22T05:00:21.402Z,3.70
2023-01-22T05:03:11.165Z,3.28
2023-01-22T05:06:03.782Z,3.17
2023-01-22T05:08:51.926Z,4.55
2023-01-22T05:11:41.986Z,4.47
2023-01-22T05:14:30.171Z,4.40
2023-01-22T05:17:19.443Z,5.25
2023-01-22T05:20:09.223Z,5.40
2023-01-22T05:22:57.381Z,5.05
2023-01-22T05:25:49.374Z,4.47
2023-01-22T05:28:38.877Z,4.70
2023-01-22T05:31:27.051Z,4.90
2023-01-22T05:34:15.257Z,4.70
2023-01-22T05:37:03.418Z,5.03
2023-01-22T05:39:51.791Z,5.18
2023-01-22T05:42:39.937Z,5.28
2023-01-22T05:45:29.437Z,5.75
2023-01-22T05:48:17.600Z,5.20
2023-01-22T05:51:07.161Z,5.90
2023-01-22T05:53:55.394Z,6.05
2023-01-22T05:56:43.552Z,5.97
2023-01-22T05:59:31.756Z,6.03
2023-01-22T06:02:21.319Z,5.38
2023-01-22T06:05:09.865Z,5.55
2023-01-22T06:07:58.045Z,5.50
2023-01-22T06:10:46.209Z,5.70
2023-01-22T06:13:35.279Z,5.88
2023-01-22T06:16:23.486Z,6.03
2023-01-22T06:19:13.508Z,5.65
2023-01-22T06:22:01.687Z,5.78
2023-01-22T06:24:49.843Z,5.88
2023-01-22T06:27:38.012Z,5.97
2023-01-22T06:30:26.150Z,6.60
2023-01-22T06:33:14.536Z,6.75
2023-01-22T06:36:04.636Z,6.15
2023-01-22T06:38:52.815Z,5.97
2023-01-22T06:41:40.997Z,6.43
2023-01-22T06:44:29.123Z,6.85
2023-01-22T06:47:17.312Z,6.55
2023-01-22T06:50:06.153Z,6.32
2023-01-22T06:52:55.713Z,6.55
2023-01-22T06:55:43.882Z,6.25
2023-01-22T06:58:32.118Z,5.65
2023-01-22T07:01:20.288Z,6.13
2023-01-22T07:04:08.461Z,6.40
2023-01-22T07:06:56.581Z,6.90
2023-01-22T07:09:46.084Z,5.85
2023-01-22T07:12:34.588Z,6.78
2023-01-22T07:15:22.795Z,7.32
2023-01-22T07:18:14.361Z,6.28
2023-01-22T07:21:02.667Z,6.47
2023-01-22T07:23:50.791Z,6.82
2023-01-22T07:26:40.316Z,6.38
2023-01-22T07:29:28.473Z,6.88
2023-01-22T07:32:16.700Z,6.82
2023-01-22T07:35:05.276Z,7.07
2023-01-22T07:37:54.110Z,7.40
2023-01-22T07:40:42.257Z,7.30
2023-01-22T07:43:32.237Z,7.78
2023-01-22T07:46:20.422Z,9.25
2023-01-22T07:49:08.642Z,7.97
2023-01-22T07:51:57.032Z,7.28
2023-01-22T07:54:45.197Z,8.20
2023-01-22T07:57:33.365Z,8.60
2023-01-22T08:00:23.273Z,8.20
2023-01-22T08:03:13.511Z,7.85
2023-01-22T08:06:01.958Z,7.90
2023-01-22T08:08:50.149Z,7.53
2023-01-22T08:11:38.329Z,7.80
2023-01-22T08:14:26.477Z,7.50
2023-01-22T08:17:16.102Z,8.35
2023-01-22T08:20:04.853Z,8.20
2023-01-22T08:22:57.479Z,8.13
2023-01-22T08:25:45.767Z,8.35
2023-01-22T08:28:34.376Z,8.38
2023-01-22T08:31:27.948Z,8.00
2023-01-22T08:34:18.119Z,7.75
2023-01-22T08:37:07.371Z,8.38
2023-01-22T08:39:56.186Z,8.23
2023-01-22T08:42:44.359Z,7.72
2023-01-22T08:45:32.659Z,8.10
2023-01-22T08:48:20.905Z,7.97
2023-01-22T08:51:10.702Z,7.35
2023-01-22T08:53:58.868Z,7.50
2023-01-22T08:56:48.064Z,7.75
2023-01-22T08:59:36.284Z,7.97
2023-01-22T09:02:24.486Z,8.00
2023-01-22T09:05:13.000Z,8.40
2023-01-22T09:08:02.503Z,8.35
2023-01-22T09:10:50.679Z,8.15
2023-01-22T09:13:38.863Z,9.13
2023-01-22T09:16:28.639Z,8.85
2023-01-22T09:19:17.794Z,8.60
2023-01-22T09:22:07.575Z,8.38
2023-01-22T09:24:57.100Z,9.05
2023-01-22T09:27:45.429Z,8.43
2023-01-22T09:30:33.706Z,8.50
2023-01-22T09:33:21.962Z,8.27
2023-01-22T09:36:12.230Z,8.52
2023-01-22T09:39:00.399Z,7.67
2023-01-22T09:41:53.494Z,7.80
2023-01-22T09:44:46.452Z,8.02
2023-01-22T09:47:37.337Z,7.55
2023-01-22T09:50:28.057Z,8.52
2023-01-22T09:53:20.316Z,8.20
2023-01-22T09:56:15.628Z,7.95
2023-01-22T09:59:08.643Z,8.43
2023-01-22T10:01:58.819Z,8.98
2023-01-22T10:04:50.956Z,8.15
2023-01-22T10:07:45.128Z,8.48
2023-01-22T10:10:34.361Z,9.10
2023-01-22T10:13:24.191Z,8.45
2023-01-22T10:16:13.893Z,9.18
2023-01-22T10:19:07.574Z,7.78
2023-01-22T10:22:01.600Z,8.27
2023-01-22T10:24:50.442Z,10.68
2023-01-22T10:27:40.339Z,11.25
2023-01-22T10:30:30.185Z,10.13
2023-01-22T10:33:25.099Z,8.80
2023-01-22T10:36:15.804Z,8.43
2023-01-22T10:39:06.347Z,8.68
2023-01-22T10:42:02.608Z,7.68
2023-01-22T10:44:51.821Z,8.48
2023-01-22T10:47:39.988Z,8.05
2023-01-22T10:50:29.554Z,8.57
2023-01-22T10:53:32.770Z,8.98
2023-01-22T10:56:29.462Z,8.05
2023-01-22T10:59:23.037Z,8.20
2023-01-22T11:02:16.887Z,8.35
2023-01-22T11:05:15.377Z,8.32
2023-01-22T11:08:07.487Z,8.05
2023-01-22T11:10:58.528Z,8.10
2023-01-22T11:13:54.960Z,8.13
2023-01-22T11:16:44.793Z,7.70
2023-01-22T11:19:40.694Z,8.23
2023-01-22T11:22:34.577Z,7.57
2023-01-22T11:25:24.627Z,8.20
2023-01-22T11:28:29.013Z,8.45
2023-01-22T11:31:30.019Z,8.40
2023-01-22T11:34:43.118Z,8.70
2023-01-22T11:37:42.360Z,8.80
2023-01-22T11:40:33.504Z,8.85
2023-01-22T11:43:33.531Z,8.63
2023-01-22T11:46:32.786Z,8.63
2023-01-22T11:49:30.809Z,8.75
2023-01-22T11:52:31.015Z,8.30
2023-01-22T11:55:29.177Z,8.70
2023-01-22T11:58:30.813Z,9.23
2023-01-22T12:01:25.876Z,10.20
2023-01-22T12:04:34.400Z,8.57
2023-01-22T12:07:49.461Z,9.23
2023-01-22T12:11:05.257Z,11.75
2023-01-22T12:14:20.088Z,9.60
2023-01-22T12:17:20.089Z,9.13
2023-01-22T12:20:37.633Z,9.95
2023-01-22T12:23:33.792Z,9.00
2023-01-22T12:26:26.202Z,9.57
2023-01-22T12:29:21.676Z,9.25
2023-01-22T12:32:12.890Z,9.07
2023-01-22T12:37:58.290Z,8.95
2023-01-22T12:41:04.951Z,9.05
2023-01-22T12:43:56.156Z,9.75
2023-01-22T12:49:50.561Z,9.82
2023-01-22T12:52:40.949Z,9.93
2023-01-22T12:55:34.991Z,9.90
2023-01-22T12:58:26.234Z,9.88
2023-01-22T13:04:13.827Z,9.57
2023-01-22T13:07:06.923Z,10.17
2023-01-22T13:10:02.727Z,9.82
2023-01-22T13:12:52.986Z,9.48
2023-01-22T13:15:42.580Z,9.70
2023-01-22T13:18:34.924Z,9.50
2023-01-22T13:21:28.795Z,9.50
2023-01-22T13:24:18.658Z,10.07
2023-01-22T13:27:06.867Z,9.60
2023-01-22T13:30:07.905Z,9.25
2023-01-22T13:33:07.245Z,9.93
2023-01-22T13:35:56.299Z,9.43
2023-01-22T13:38:52.470Z,8.50
2023-01-22T13:41:41.982Z,9.85
2023-01-22T13:44:37.004Z,9.18
2023-01-22T13:47:32.649Z,8.95
2023-01-22T13:50:22.897Z,9.38
2023-01-22T13:53:18.517Z,8.93
2023-01-22T13:56:14.531Z,9.88
2023-01-22T13:59:08.488Z,9.73
2023-01-22T14:01:56.766Z,10.45
2023-01-22T14:04:45.256Z,10.57
2023-01-22T14:07:35.256Z,11.05
2023-01-22T14:10:26.419Z,10.70
2023-01-22T14:13:16.637Z,12.25
2023-01-22T14:16:06.973Z,11.83
2023-01-22T14:18:55.387Z,11.57
2023-01-22T14:21:43.730Z,12.00
2023-01-22T14:24:32.062Z,12.73
2023-01-22T14:27:20.948Z,12.85
2023-01-22T14:30:14.537Z,12.93
2023-01-22T14:33:03.477Z,12.30
2023-01-22T14:35:52.155Z,12.95
2023-01-22T14:38:40.468Z,12.70
2023-01-22T14:41:29.081Z,12.57
2023-01-22T14:44:17.301Z,12.25
2023-01-22T14:47:06.978Z,14.32
2023-01-22T14:49:55.249Z,16.92
2023-01-22T14:52:43.537Z,14.85
2023-01-22T14:55:31.876Z,14.57
2023-01-22T14:58:22.517Z,13.93
2023-01-22T15:01:18.861Z,14.60
2023-01-22T15:04:08.755Z,12.63
2023-01-22T15:06:57.360Z,15.45
2023-01-22T15:09:45.747Z,15.38
2023-01-22T15:12:34.218Z,18.80
2023-01-22T15:15:26.389Z,13.35
2023-01-22T15:18:15.284Z,14.10
2023-01-22T15:21:06.176Z,13.90
2023-01-22T15:23:54.525Z,14.35
2023-01-22T15:26:43.439Z,13.45
2023-01-22T15:29:31.952Z,12.55
2023-01-22T15:32:20.184Z,13.15
2023-01-22T15:35:09.361Z,12.98
2023-01-22T15:37:59.167Z,13.20
2023-01-22T15:40:47.443Z,12.93
2023-01-22T15:43:35.700Z,13.27
2023-01-22T15:46:26.526Z,11.75
2023-01-22T15:49:15.341Z,11.75
2023-01-22T15:52:03.610Z,12.45
2023-01-22T15:54:54.595Z,12.38
2023-01-22T15:57:42.818Z,13.30
2023-01-22T16:00:31.513Z,12.45
2023-01-22T16:03:19.911Z,12.00
2023-01-22T16:06:09.578Z,13.10
2023-01-22T16:08:59.778Z,12.38
2023-01-22T16:11:50.104Z,11.52
2023-01-22T16:14:38.396Z,11.27
2023-01-22T16:17:27.006Z,11.38
2023-01-22T16:20:15.541Z,10.85
2023-01-22T16:23:03.637Z,11.18
2023-01-22T16:25:51.765Z,11.45
2023-01-22T16:28:41.982Z,12.82
2023-01-22T16:31:32.356Z,11.45
2023-01-22T16:34:21.660Z,11.23
2023-01-22T16:37:09.829Z,10.77
2023-01-22T16:39:58.034Z,11.52
2023-01-22T16:42:59.349Z,12.63
2023-01-22T16:45:48.885Z,12.95
2023-01-22T16:48:37.070Z,11.48
2023-01-22T16:51:26.864Z,11.60
2023-01-22T16:54:20.661Z,12.27
2023-01-22T16:57:09.701Z,12.70
2023-01-22T16:59:58.046Z,12.25
2023-01-22T17:02:47.719Z,12.23
2023-01-22T17:05:35.969Z,12.20
2023-01-22T17:08:24.141Z,12.52
2023-01-22T17:11:16.297Z,12.55
2023-01-22T17:14:06.849Z,11.75
2023-01-22T17:16:56.426Z,12.90
2023-01-22T17:19:45.906Z,12.32
2023-01-22T17:22:35.955Z,13.20
2023-01-22T17:25:24.132Z,15.68
2023-01-22T17:28:12.298Z,13.00
2023-01-22T17:31:00.548Z,15.48
2023-01-22T17:33:49.790Z,13.48
2023-01-22T17:36:39.883Z,12.85
2023-01-22T17:39:28.168Z,13.55
2023-01-22T17:42:16.360Z,13.43
2023-01-22T17:45:04.819Z,13.23
2023-01-22T17:47:53.012Z,14.25
2023-01-22T17:50:41.821Z,13.27
2023-01-22T17:53:31.656Z,13.68
2023-01-22T17:56:21.872Z,12.88
2023-01-22T17:59:11.309Z,13.95
2023-01-22T18:02:00.243Z,12.98
2023-01-22T18:04:48.660Z,13.93
2023-01-22T18:07:37.853Z,15.75
2023-01-22T18:10:28.228Z,15.38
2023-01-22T18:13:16.494Z,13.98
2023-01-22T18:16:05.101Z,13.13
2023-01-22T18:18:54.571Z,13.98
2023-01-22T18:21:42.889Z,13.65
2023-01-22T18:24:33.382Z,13.43
2023-01-22T18:27:24.056Z,13.93
2023-01-22T18:30:14.852Z,14.82
2023-01-22T18:33:03.104Z,13.68
2023-01-22T18:35:53.848Z,13.70
2023-01-22T18:38:43.067Z,14.00
2023-01-22T18:41:31.811Z,15.02
2023-01-22T18:44:22.669Z,14.07
2023-01-22T18:47:11.276Z,13.80
2023-01-22T18:49:59.495Z,13.98
2023-01-22T18:52:49.261Z,14.30
2023-01-22T18:55:38.059Z,16.00
2023-01-22T18:58:30.561Z,15.20
2023-01-22T19:01:23.213Z,15.38
2023-01-22T19:04:17.899Z,15.30
2023-01-22T19:07:06.436Z,14.68
2023-01-22T19:09:54.917Z,15.13
2023-01-22T19:12:43.177Z,14.27
2023-01-22T19:15:32.433Z,14.27
2023-01-22T19:18:21.977Z,15.88
2023-01-22T19:21:13.229Z,14.55
2023-01-22T19:26:52.147Z,15.00
2023-01-22T19:29:40.364Z,14.70
2023-01-22T19:32:30.347Z,15.15
2023-01-22T19:35:20.336Z,15.70
2023-01-22T19:38:10.510Z,15.63
2023-01-22T19:40:58.966Z,15.65
2023-01-22T19:43:48.028Z,15.65
2023-01-22T19:46:37.918Z,16.00
2023-01-22T19:49:26.224Z,15.80
2023-01-22T19:52:15.737Z,15.73
2023-01-22T19:55:04.095Z,14.60
2023-01-22T19:57:52.276Z,14.77
2023-01-22T20:00:40.535Z,15.75
2023-01-22T20:03:28.724Z,14.52
2023-01-22T20:06:18.910Z,15.85
2023-01-22T20:09:08.461Z,15.68
2023-01-22T20:11:58.169Z,15.25
2023-01-22T20:14:46.519Z,16.00
2023-01-22T20:17:36.558Z,15.35
2023-01-22T20:20:26.106Z,16.38
2023-01-22T20:23:14.309Z,15.55
2023-01-22T20:26:09.145Z,14.85
2023-01-22T20:28:57.413Z,15.45
2023-01-22T20:31:45.622Z,16.13
2023-01-22T20:34:34.132Z,15.35
2023-01-22T20:37:22.289Z,14.73
2023-01-22T20:40:12.048Z,15.63
2023-01-22T20:43:01.731Z,14.07
2023-01-22T20:46:00.590Z,15.35
2023-01-22T20:48:49.419Z,15.98
2023-01-22T20:51:38.096Z,14.43
2023-01-22T20:54:27.923Z,15.15
2023-01-22T20:57:16.053Z,15.05
2023-01-22T21:00:07.071Z,14.50
2023-01-22T21:02:55.271Z,14.32
2023-01-22T21:05:43.556Z,13.15
2023-01-22T21:08:31.981Z,14.27
2023-01-22T21:11:21.834Z,14.77
2023-01-22T21:14:15.760Z,14.57
2023-01-22T21:17:05.548Z,15.02
2023-01-22T21:19:55.274Z,13.82
2023-01-22T21:22:43.502Z,14.43
2023-01-22T21:25:31.639Z,15.02
2023-01-22T21:28:20.364Z,14.07
2023-01-22T21:31:11.889Z,14.20
2023-01-22T21:34:03.414Z,13.60
2023-01-22T21:36:54.645Z,12.77
2023-01-22T21:42:50.850Z,13.00
2023-01-22T21:45:59.667Z,15.07
2023-01-22T21:48:47.953Z,15.10
2023-01-22T21:51:37.501Z,14.50
2023-01-22T21:54:28.382Z,15.57
2023-01-22T21:57:20.464Z,15.05
2023-01-22T22:00:10.246Z,16.15
2023-01-22T22:02:58.757Z,15.27
2023-01-22T22:05:55.921Z,15.52
2023-01-22T22:08:45.586Z,15.75
2023-01-22T22:11:34.166Z,14.82
2023-01-22T22:14:22.353Z,15.23
2023-01-22T22:17:10.863Z,16.00
2023-01-22T22:19:59.058Z,14.93
2023-01-22T22:22:47.199Z,15.00
2023-01-22T22:25:36.694Z,14.80
2023-01-22T22:28:25.394Z,14.63
2023-01-22T22:31:16.512Z,15.40
2023-01-22T22:34:05.323Z,15.30
2023-01-22T22:36:53.631Z,14.43
2023-01-22T22:39:41.847Z,15.23
2023-01-22T22:42:31.325Z,15.07
2023-01-22T22:45:19.827Z,14.50
2023-01-22T22:48:08.033Z,14.65
2023-01-22T22:50:56.215Z,13.77
2023-01-22T22:53:44.738Z,14.82
2023-01-22T22:56:33.483Z,15.32
2023-01-22T22:59:23.013Z,14.80
2023-01-22T23:02:11.284Z,15.90
2023-01-22T23:04:59.519Z,15.35
2023-01-22T23:07:47.708Z,15.95
2023-01-22T23:10:38.927Z,15.52
2023-01-22T23:16:19.020Z,14.80
2023-01-22T23:19:10.249Z,15.27
2023-01-22T23:22:00.154Z,14.85
2023-01-22T23:24:48.285Z,14.82
2023-01-22T23:27:36.445Z,15.35
2023-01-22T23:30:25.328Z,14.07
2023-01-22T23:33:14.862Z,14.27
2023-01-22T23:36:03.764Z,14.88
2023-01-22T23:38:51.947Z,15.13
2023-01-22T23:41:40.189Z,14.68
2023-01-22T23:44:28.381Z,14.48
2023-01-22T23:47:16.563Z,14.15
2023-01-22T23:50:07.135Z,14.90
2023-01-22T23:52:55.524Z,15.65
2023-01-22T23:55:44.388Z,14.55
2023-01-22T23:58:32.916Z,15.13
